sensor_id;sensor_type;location;lat;lon;timestamp;pressure;altitude;pressure_sealevel;temperature;humidity
27958;BME280;15295;42.658;23.374;2023-12-20T00:00:38;94951.44;;;6.75;54.30
27958;BME280;15295;42.658;23.374;2023-12-20T00:03:04;94945.19;;;6.71;54.48
27958;BME280;15295;42.658;23.374;2023-12-20T00:05:31;94940.47;;;6.68;54.22
27958;BME280;15295;42.658;23.374;2023-12-20T00:08:00;94935.69;;;6.61;53.97
27958;BME280;15295;42.658;23.374;2023-12-20T00:10:26;94891.75;;;6.30;54.39
27958;BME280;15295;42.658;23.374;2023-12-20T00:12:51;94926.28;;;6.55;54.57
27958;BME280;15295;42.658;23.374;2023-12-20T00:15:17;94932.56;;;6.59;54.41
27958;BME280;15295;42.658;23.374;2023-12-20T00:17:42;94920.06;;;6.55;54.49
27958;BME280;15295;42.658;23.374;2023-12-20T00:20:09;94930.63;;;6.60;54.58
27958;BME280;15295;42.658;23.374;2023-12-20T00:22:35;94924.50;;;6.63;54.25
27958;BME280;15295;42.658;23.374;2023-12-20T00:25:09;94921.03;;;6.66;54.29
27958;BME280;15295;42.658;23.374;2023-12-20T00:27:35;94915.31;;;6.71;53.94
27958;BME280;15295;42.658;23.374;2023-12-20T00:30:00;94922.84;;;6.81;53.95
27958;BME280;15295;42.658;23.374;2023-12-20T00:32:26;94906.13;;;6.79;53.69
27958;BME280;15295;42.658;23.374;2023-12-20T00:34:53;94906.78;;;6.72;53.78
27958;BME280;15295;42.658;23.374;2023-12-20T00:37:19;94897.97;;;6.79;53.89
27958;BME280;15295;42.658;23.374;2023-12-20T00:39:44;94875.13;;;6.57;53.94
27958;BME280;15295;42.658;23.374;2023-12-20T00:42:10;94903.28;;;6.72;54.15
27958;BME280;15295;42.658;23.374;2023-12-20T00:44:36;94890.06;;;6.70;54.17
27958;BME280;15295;42.658;23.374;2023-12-20T00:47:03;94888.16;;;6.71;54.21
27958;BME280;15295;42.658;23.374;2023-12-20T00:49:30;94888.34;;;6.59;54.49
27958;BME280;15295;42.658;23.374;2023-12-20T00:51:55;94888.41;;;6.62;54.29
27958;BME280;15295;42.658;23.374;2023-12-20T00:54:27;94874.28;;;6.53;53.98
27958;BME280;15295;42.658;23.374;2023-12-20T00:56:53;94880.56;;;6.57;53.54
27958;BME280;15295;42.658;23.374;2023-12-20T00:59:19;94877.75;;;6.28;54.05
27958;BME280;15295;42.658;23.374;2023-12-20T01:01:45;94877.75;;;6.28;54.25
27958;BME280;15295;42.658;23.374;2023-12-20T01:04:11;94875.16;;;6.12;54.93
27958;BME280;15295;42.658;23.374;2023-12-20T01:06:36;94874.16;;;6.01;55.37
27958;BME280;15295;42.658;23.374;2023-12-20T01:09:02;94866.81;;;6.01;55.42
27958;BME280;15295;42.658;23.374;2023-12-20T01:11:28;94859.72;;;5.93;55.76
27958;BME280;15295;42.658;23.374;2023-12-20T01:13:53;94861.59;;;5.89;55.79
27958;BME280;15295;42.658;23.374;2023-12-20T01:16:20;94853.50;;;5.74;56.03
27958;BME280;15295;42.658;23.374;2023-12-20T01:18:46;94855.16;;;5.78;55.84
27958;BME280;15295;42.658;23.374;2023-12-20T01:21:11;94861.41;;;5.82;55.89
27958;BME280;15295;42.658;23.374;2023-12-20T01:23:37;94858.44;;;5.87;55.75
27958;BME280;15295;42.658;23.374;2023-12-20T01:26:02;94845.94;;;5.83;55.78
27958;BME280;15295;42.658;23.374;2023-12-20T01:28:29;94828.72;;;5.75;55.70
27958;BME280;15295;42.658;23.374;2023-12-20T01:30:55;94840.66;;;5.90;55.77
27958;BME280;15295;42.658;23.374;2023-12-20T01:33:20;94833.72;;;5.92;55.47
27958;BME280;15295;42.658;23.374;2023-12-20T01:35:48;94844.78;;;6.03;55.14
27958;BME280;15295;42.658;23.374;2023-12-20T01:38:13;94827.72;;;6.02;55.28
27958;BME280;15295;42.658;23.374;2023-12-20T01:40:39;94832.06;;;6.07;55.18
27958;BME280;15295;42.658;23.374;2023-12-20T01:43:08;94822.03;;;6.11;55.19
27958;BME280;15295;42.658;23.374;2023-12-20T01:45:35;94824.16;;;5.98;55.70
27958;BME280;15295;42.658;23.374;2023-12-20T01:48:01;94799.38;;;6.00;55.48
27958;BME280;15295;42.658;23.374;2023-12-20T01:50:28;94814.44;;;5.97;55.98
27958;BME280;15295;42.658;23.374;2023-12-20T01:52:55;94808.78;;;6.06;55.76
27958;BME280;15295;42.658;23.374;2023-12-20T01:55:33;94781.84;;;5.94;55.74
27958;BME280;15295;42.658;23.374;2023-12-20T01:58:00;94786.00;;;5.88;56.09
27958;BME280;15295;42.658;23.374;2023-12-20T02:00:27;94782.13;;;5.66;56.39
27958;BME280;15295;42.658;23.374;2023-12-20T02:02:54;94796.31;;;5.82;56.18
27958;BME280;15295;42.658;23.374;2023-12-20T02:05:35;94798.91;;;5.94;55.68
27958;BME280;15295;42.658;23.374;2023-12-20T02:08:02;94776.28;;;5.87;55.90
27958;BME280;15295;42.658;23.374;2023-12-20T02:10:28;94788.47;;;5.96;55.88
27958;BME280;15295;42.658;23.374;2023-12-20T02:12:54;94784.59;;;5.97;55.60
27958;BME280;15295;42.658;23.374;2023-12-20T02:15:20;94789.66;;;5.99;55.35
27958;BME280;15295;42.658;23.374;2023-12-20T02:17:47;94779.22;;;6.01;55.18
27958;BME280;15295;42.658;23.374;2023-12-20T02:20:12;94782.84;;;6.08;54.77
27958;BME280;15295;42.658;23.374;2023-12-20T02:22:39;94774.41;;;6.13;54.41
27958;BME280;15295;42.658;23.374;2023-12-20T02:25:07;94777.38;;;6.05;54.33
27958;BME280;15295;42.658;23.374;2023-12-20T02:27:44;94761.41;;;6.00;54.05
27958;BME280;15295;42.658;23.374;2023-12-20T02:30:10;94780.13;;;6.08;53.78
27958;BME280;15295;42.658;23.374;2023-12-20T02:32:35;94769.94;;;6.02;53.12
27958;BME280;15295;42.658;23.374;2023-12-20T02:35:01;94749.09;;;5.83;53.11
27958;BME280;15295;42.658;23.374;2023-12-20T02:37:26;94758.50;;;5.89;52.90
27958;BME280;15295;42.658;23.374;2023-12-20T02:39:52;94761.44;;;5.81;52.62
27958;BME280;15295;42.658;23.374;2023-12-20T02:42:19;94751.97;;;5.71;52.88
27958;BME280;15295;42.658;23.374;2023-12-20T02:44:45;94747.59;;;5.63;52.57
27958;BME280;15295;42.658;23.374;2023-12-20T02:47:12;94731.19;;;5.56;53.12
27958;BME280;15295;42.658;23.374;2023-12-20T02:49:38;94736.25;;;5.58;53.39
27958;BME280;15295;42.658;23.374;2023-12-20T02:52:03;94746.44;;;5.64;53.78
27958;BME280;15295;42.658;23.374;2023-12-20T02:54:29;94750.28;;;5.63;54.15
27958;BME280;15295;42.658;23.374;2023-12-20T02:56:55;94743.25;;;5.59;53.14
27958;BME280;15295;42.658;23.374;2023-12-20T02:59:21;94746.03;;;5.62;52.87
27958;BME280;15295;42.658;23.374;2023-12-20T03:01:46;94734.56;;;5.49;53.36
27958;BME280;15295;42.658;23.374;2023-12-20T03:04:12;94746.31;;;5.57;52.86
27958;BME280;15295;42.658;23.374;2023-12-20T03:06:39;94730.94;;;5.42;52.21
27958;BME280;15295;42.658;23.374;2023-12-20T03:09:05;94739.78;;;5.39;52.04
27958;BME280;15295;42.658;23.374;2023-12-20T03:11:30;94746.22;;;5.31;52.00
27958;BME280;15295;42.658;23.374;2023-12-20T03:13:56;94737.84;;;5.17;51.85
27958;BME280;15295;42.658;23.374;2023-12-20T03:16:26;94750.97;;;5.15;51.84
27958;BME280;15295;42.658;23.374;2023-12-20T03:18:51;94744.56;;;5.04;51.80
27958;BME280;15295;42.658;23.374;2023-12-20T03:21:17;94745.34;;;5.04;51.78
27958;BME280;15295;42.658;23.374;2023-12-20T03:23:42;94744.41;;;4.97;52.74
27958;BME280;15295;42.658;23.374;2023-12-20T03:26:08;94734.59;;;4.89;53.47
27958;BME280;15295;42.658;23.374;2023-12-20T03:28:39;94737.72;;;4.91;52.99
27958;BME280;15295;42.658;23.374;2023-12-20T03:31:05;94734.53;;;4.85;52.98
27958;BME280;15295;42.658;23.374;2023-12-20T03:33:30;94719.69;;;4.79;53.37
27958;BME280;15295;42.658;23.374;2023-12-20T03:35:56;94718.50;;;4.77;54.48
27958;BME280;15295;42.658;23.374;2023-12-20T03:38:47;94731.09;;;4.88;54.92
27958;BME280;15295;42.658;23.374;2023-12-20T03:41:13;94735.28;;;4.86;54.59
27958;BME280;15295;42.658;23.374;2023-12-20T03:43:38;94722.06;;;4.81;54.47
27958;BME280;15295;42.658;23.374;2023-12-20T03:46:04;94725.69;;;4.88;55.05
27958;BME280;15295;42.658;23.374;2023-12-20T03:48:59;94724.88;;;4.88;55.08
27958;BME280;15295;42.658;23.374;2023-12-20T03:51:24;94725.63;;;4.85;55.09
27958;BME280;15295;42.658;23.374;2023-12-20T03:53:50;94721.69;;;4.82;55.08
27958;BME280;15295;42.658;23.374;2023-12-20T03:56:15;94713.53;;;4.79;55.01
27958;BME280;15295;42.658;23.374;2023-12-20T04:01:29;94696.56;;;4.62;55.13
27958;BME280;15295;42.658;23.374;2023-12-20T04:03:54;94710.03;;;4.78;55.02
27958;BME280;15295;42.658;23.374;2023-12-20T04:06:20;94703.38;;;4.76;55.03
27958;BME280;15295;42.658;23.374;2023-12-20T04:08:47;94709.22;;;4.78;55.00
27958;BME280;15295;42.658;23.374;2023-12-20T04:11:13;94702.97;;;4.74;55.30
27958;BME280;15295;42.658;23.374;2023-12-20T04:13:38;94706.75;;;4.69;55.59
27958;BME280;15295;42.658;23.374;2023-12-20T04:16:04;94677.50;;;4.55;55.18
27958;BME280;15295;42.658;23.374;2023-12-20T04:18:30;94699.69;;;4.64;55.35
27958;BME280;15295;42.658;23.374;2023-12-20T04:20:57;94688.75;;;4.57;55.41
27958;BME280;15295;42.658;23.374;2023-12-20T04:23:22;94689.59;;;4.61;55.38
27958;BME280;15295;42.658;23.374;2023-12-20T04:25:48;94698.25;;;4.70;55.36
27958;BME280;15295;42.658;23.374;2023-12-20T04:28:13;94699.63;;;4.80;55.34
27958;BME280;15295;42.658;23.374;2023-12-20T04:30:40;94689.34;;;4.89;55.42
27958;BME280;15295;42.658;23.374;2023-12-20T04:33:05;94686.28;;;4.91;54.97
27958;BME280;15295;42.658;23.374;2023-12-20T04:35:31;94682.50;;;4.95;55.02
27958;BME280;15295;42.658;23.374;2023-12-20T04:37:59;94664.84;;;4.82;55.10
27958;BME280;15295;42.658;23.374;2023-12-20T04:40:24;94657.16;;;4.84;55.29
27958;BME280;15295;42.658;23.374;2023-12-20T04:42:50;94676.00;;;5.00;54.79
27958;BME280;15295;42.658;23.374;2023-12-20T04:45:15;94684.84;;;4.97;54.38
27958;BME280;15295;42.658;23.374;2023-12-20T04:47:42;94677.78;;;4.92;54.13
27958;BME280;15295;42.658;23.374;2023-12-20T04:50:08;94677.28;;;5.06;55.14
27958;BME280;15295;42.658;23.374;2023-12-20T04:52:35;94651.22;;;4.98;54.73
27958;BME280;15295;42.658;23.374;2023-12-20T04:57:36;94665.09;;;5.15;54.36
27958;BME280;15295;42.658;23.374;2023-12-20T05:00:01;94664.34;;;4.96;53.91
27958;BME280;15295;42.658;23.374;2023-12-20T05:02:27;94675.50;;;4.94;53.82
27958;BME280;15295;42.658;23.374;2023-12-20T05:04:52;94649.53;;;4.90;53.28
27958;BME280;15295;42.658;23.374;2023-12-20T05:07:18;94632.94;;;4.72;53.42
27958;BME280;15295;42.658;23.374;2023-12-20T05:09:43;94666.19;;;4.92;53.40
27958;BME280;15295;42.658;23.374;2023-12-20T05:12:09;94646.75;;;4.86;53.90
27958;BME280;15295;42.658;23.374;2023-12-20T05:14:34;94661.44;;;4.85;54.07
27958;BME280;15295;42.658;23.374;2023-12-20T05:17:00;94667.59;;;4.86;54.26
27958;BME280;15295;42.658;23.374;2023-12-20T05:19:33;94641.88;;;4.73;54.27
27958;BME280;15295;42.658;23.374;2023-12-20T05:22:01;94656.03;;;4.85;53.90
27958;BME280;15295;42.658;23.374;2023-12-20T05:24:27;94661.28;;;4.78;53.60
27958;BME280;15295;42.658;23.374;2023-12-20T05:26:53;94654.88;;;4.67;53.82
27958;BME280;15295;42.658;23.374;2023-12-20T05:29:24;94641.72;;;4.65;54.42
27958;BME280;15295;42.658;23.374;2023-12-20T05:31:50;94644.72;;;4.60;53.53
27958;BME280;15295;42.658;23.374;2023-12-20T05:34:15;94646.84;;;4.51;53.90
27958;BME280;15295;42.658;23.374;2023-12-20T05:36:41;94635.31;;;4.35;54.35
27958;BME280;15295;42.658;23.374;2023-12-20T05:39:07;94638.38;;;4.34;54.49
27958;BME280;15295;42.658;23.374;2023-12-20T05:41:33;94637.88;;;4.28;54.47
27958;BME280;15295;42.658;23.374;2023-12-20T05:43:58;94639.38;;;4.26;54.38
27958;BME280;15295;42.658;23.374;2023-12-20T05:46:37;94637.50;;;4.11;54.43
27958;BME280;15295;42.658;23.374;2023-12-20T05:49:07;94630.94;;;3.92;55.27
27958;BME280;15295;42.658;23.374;2023-12-20T05:51:33;94643.47;;;4.01;55.18
27958;BME280;15295;42.658;23.374;2023-12-20T05:53:58;94622.84;;;3.92;55.20
27958;BME280;15295;42.658;23.374;2023-12-20T05:56:24;94623.72;;;3.81;55.78
27958;BME280;15295;42.658;23.374;2023-12-20T05:58:50;94623.03;;;3.84;56.04
27958;BME280;15295;42.658;23.374;2023-12-20T06:01:16;94618.69;;;3.79;56.20
27958;BME280;15295;42.658;23.374;2023-12-20T06:03:44;94621.88;;;3.85;56.34
27958;BME280;15295;42.658;23.374;2023-12-20T06:06:11;94616.84;;;3.83;55.95
27958;BME280;15295;42.658;23.374;2023-12-20T06:08:38;94612.84;;;3.77;56.64
27958;BME280;15295;42.658;23.374;2023-12-20T06:11:04;94595.00;;;3.73;56.83
27958;BME280;15295;42.658;23.374;2023-12-20T06:13:30;94607.69;;;3.88;57.15
27958;BME280;15295;42.658;23.374;2023-12-20T06:15:56;94613.94;;;3.92;57.19
27958;BME280;15295;42.658;23.374;2023-12-20T06:18:22;94619.56;;;4.03;57.06
27958;BME280;15295;42.658;23.374;2023-12-20T06:21:00;94619.78;;;3.94;57.17
27958;BME280;15295;42.658;23.374;2023-12-20T06:23:26;94640.56;;;4.09;57.53
27958;BME280;15295;42.658;23.374;2023-12-20T06:25:53;94636.75;;;4.10;57.32
27958;BME280;15295;42.658;23.374;2023-12-20T06:28:18;94634.47;;;4.12;57.22
27958;BME280;15295;42.658;23.374;2023-12-20T06:31:12;94631.34;;;4.10;57.03
27958;BME280;15295;42.658;23.374;2023-12-20T06:33:37;94626.56;;;4.04;57.04
27958;BME280;15295;42.658;23.374;2023-12-20T06:36:05;94628.19;;;4.08;57.18
27958;BME280;15295;42.658;23.374;2023-12-20T06:38:31;94625.94;;;4.10;57.47
27958;BME280;15295;42.658;23.374;2023-12-20T06:40:57;94621.28;;;4.11;57.56
27958;BME280;15295;42.658;23.374;2023-12-20T06:43:23;94626.34;;;4.12;57.51
27958;BME280;15295;42.658;23.374;2023-12-20T06:45:49;94611.25;;;4.11;57.74
27958;BME280;15295;42.658;23.374;2023-12-20T06:48:14;94608.13;;;4.09;57.88
27958;BME280;15295;42.658;23.374;2023-12-20T06:50:41;94583.78;;;4.09;57.64
27958;BME280;15295;42.658;23.374;2023-12-20T06:53:06;94595.88;;;4.15;58.22
27958;BME280;15295;42.658;23.374;2023-12-20T06:55:34;94603.13;;;4.30;58.37
27958;BME280;15295;42.658;23.374;2023-12-20T06:58:01;94586.78;;;4.23;57.75
27958;BME280;15295;42.658;23.374;2023-12-20T07:00:28;94598.78;;;4.26;57.94
27958;BME280;15295;42.658;23.374;2023-12-20T07:02:54;94587.22;;;4.25;57.93
27958;BME280;15295;42.658;23.374;2023-12-20T07:10:26;94590.38;;;4.50;58.16
27958;BME280;15295;42.658;23.374;2023-12-20T07:12:52;94590.06;;;4.74;57.81
27958;BME280;15295;42.658;23.374;2023-12-20T07:15:20;94589.41;;;4.81;56.65
27958;BME280;15295;42.658;23.374;2023-12-20T07:17:47;94588.13;;;4.97;56.66
27958;BME280;15295;42.658;23.374;2023-12-20T07:20:20;94585.31;;;5.39;56.95
27958;BME280;15295;42.658;23.374;2023-12-20T07:22:46;94591.41;;;5.81;55.49
27958;BME280;15295;42.658;23.374;2023-12-20T07:25:11;94568.09;;;6.03;54.76
27958;BME280;15295;42.658;23.374;2023-12-20T07:27:37;94579.19;;;6.24;53.73
27958;BME280;15295;42.658;23.374;2023-12-20T07:30:02;94577.13;;;6.47;53.23
27958;BME280;15295;42.658;23.374;2023-12-20T07:32:28;94569.97;;;7.06;52.84
27958;BME280;15295;42.658;23.374;2023-12-20T07:34:53;94571.63;;;7.21;51.17
27958;BME280;15295;42.658;23.374;2023-12-20T07:37:20;94559.88;;;7.06;50.59
27958;BME280;15295;42.658;23.374;2023-12-20T07:39:46;94566.88;;;7.07;50.81
27958;BME280;15295;42.658;23.374;2023-12-20T07:42:12;94575.53;;;7.23;51.05
27958;BME280;15295;42.658;23.374;2023-12-20T07:44:38;94584.78;;;7.62;50.77
27958;BME280;15295;42.658;23.374;2023-12-20T07:47:04;94584.44;;;7.67;50.28
27958;BME280;15295;42.658;23.374;2023-12-20T07:49:33;94585.19;;;7.61;50.02
27958;BME280;15295;42.658;23.374;2023-12-20T07:51:58;94562.56;;;7.50;50.05
27958;BME280;15295;42.658;23.374;2023-12-20T07:54:24;94568.81;;;7.57;50.21
27958;BME280;15295;42.658;23.374;2023-12-20T07:56:49;94553.22;;;7.51;50.01
27958;BME280;15295;42.658;23.374;2023-12-20T07:59:15;94571.44;;;7.43;50.30
27958;BME280;15295;42.658;23.374;2023-12-20T08:01:41;94573.38;;;7.39;50.82
27958;BME280;15295;42.658;23.374;2023-12-20T08:04:08;94570.19;;;7.34;50.79
27958;BME280;15295;42.658;23.374;2023-12-20T08:06:33;94563.13;;;7.22;51.26
27958;BME280;15295;42.658;23.374;2023-12-20T08:09:02;94567.38;;;7.23;51.58
27958;BME280;15295;42.658;23.374;2023-12-20T08:11:28;94553.06;;;7.30;51.88
27958;BME280;15295;42.658;23.374;2023-12-20T08:13:54;94553.94;;;7.41;51.79
27958;BME280;15295;42.658;23.374;2023-12-20T08:16:20;94545.41;;;7.42;51.57
27958;BME280;15295;42.658;23.374;2023-12-20T08:18:45;94559.06;;;7.49;51.14
27958;BME280;15295;42.658;23.374;2023-12-20T08:21:11;94539.50;;;7.30;51.19
27958;BME280;15295;42.658;23.374;2023-12-20T08:23:37;94553.16;;;7.40;51.63
27958;BME280;15295;42.658;23.374;2023-12-20T08:26:05;94526.69;;;7.34;51.65
27958;BME280;15295;42.658;23.374;2023-12-20T08:28:31;94552.16;;;7.62;51.50
27958;BME280;15295;42.658;23.374;2023-12-20T08:30:57;94551.03;;;7.70;51.20
27958;BME280;15295;42.658;23.374;2023-12-20T08:33:22;94539.81;;;7.75;50.99
27958;BME280;15295;42.658;23.374;2023-12-20T08:35:48;94537.13;;;7.83;50.72
27958;BME280;15295;42.658;23.374;2023-12-20T08:38:13;94532.84;;;7.82;50.72
27958;BME280;15295;42.658;23.374;2023-12-20T08:40:39;94523.50;;;7.79;50.61
27958;BME280;15295;42.658;23.374;2023-12-20T08:43:05;94508.28;;;7.67;50.59
27958;BME280;15295;42.658;23.374;2023-12-20T08:45:30;94509.06;;;7.68;50.61
27958;BME280;15295;42.658;23.374;2023-12-20T08:47:56;94507.56;;;7.74;50.56
27958;BME280;15295;42.658;23.374;2023-12-20T08:50:21;94524.63;;;7.74;51.02
27958;BME280;15295;42.658;23.374;2023-12-20T08:52:47;94509.84;;;7.72;51.30
27958;BME280;15295;42.658;23.374;2023-12-20T08:55:12;94519.59;;;7.76;51.30
27958;BME280;15295;42.658;23.374;2023-12-20T08:57:40;94518.78;;;7.65;51.66
27958;BME280;15295;42.658;23.374;2023-12-20T09:00:06;94518.44;;;7.74;51.52
27958;BME280;15295;42.658;23.374;2023-12-20T09:02:40;94497.78;;;7.62;51.52
27958;BME280;15295;42.658;23.374;2023-12-20T09:05:05;94503.53;;;7.54;51.94
27958;BME280;15295;42.658;23.374;2023-12-20T09:07:31;94466.94;;;7.41;52.33
27958;BME280;15295;42.658;23.374;2023-12-20T09:09:57;94488.81;;;7.58;52.03
27958;BME280;15295;42.658;23.374;2023-12-20T09:12:29;94468.59;;;7.52;51.96
27958;BME280;15295;42.658;23.374;2023-12-20T09:14:55;94453.06;;;7.56;51.94
27958;BME280;15295;42.658;23.374;2023-12-20T09:17:20;94449.97;;;7.61;52.25
27958;BME280;15295;42.658;23.374;2023-12-20T09:19:48;94446.88;;;7.66;51.95
27958;BME280;15295;42.658;23.374;2023-12-20T09:22:15;94439.81;;;7.55;52.00
27958;BME280;15295;42.658;23.374;2023-12-20T09:24:40;94431.25;;;7.46;52.14
27958;BME280;15295;42.658;23.374;2023-12-20T09:27:06;94432.00;;;7.43;52.25
27958;BME280;15295;42.658;23.374;2023-12-20T09:29:31;94423.38;;;7.27;52.69
27958;BME280;15295;42.658;23.374;2023-12-20T09:31:57;94421.47;;;7.38;52.42
27958;BME280;15295;42.658;23.374;2023-12-20T09:34:23;94397.38;;;7.29;52.29
27958;BME280;15295;42.658;23.374;2023-12-20T09:36:48;94419.47;;;7.24;52.61
27958;BME280;15295;42.658;23.374;2023-12-20T09:39:14;94402.00;;;7.25;52.81
27958;BME280;15295;42.658;23.374;2023-12-20T09:41:44;94393.44;;;7.23;52.84
27958;BME280;15295;42.658;23.374;2023-12-20T09:44:15;94400.13;;;7.36;53.04
27958;BME280;15295;42.658;23.374;2023-12-20T09:46:45;94405.16;;;7.38;52.33
27958;BME280;15295;42.658;23.374;2023-12-20T09:49:11;94386.94;;;7.38;52.11
27958;BME280;15295;42.658;23.374;2023-12-20T09:51:38;94384.59;;;7.40;52.29
27958;BME280;15295;42.658;23.374;2023-12-20T09:54:04;94380.78;;;7.48;52.51
27958;BME280;15295;42.658;23.374;2023-12-20T09:56:30;94386.22;;;7.52;52.48
27958;BME280;15295;42.658;23.374;2023-12-20T09:58:56;94387.81;;;7.60;52.57
27958;BME280;15295;42.658;23.374;2023-12-20T10:01:22;94374.63;;;7.65;52.49
27958;BME280;15295;42.658;23.374;2023-12-20T10:03:51;94362.94;;;7.61;52.51
27958;BME280;15295;42.658;23.374;2023-12-20T10:06:19;94372.34;;;7.82;52.39
27958;BME280;15295;42.658;23.374;2023-12-20T10:08:44;94371.97;;;7.90;52.17
27958;BME280;15295;42.658;23.374;2023-12-20T10:11:10;94353.72;;;7.94;52.05
27958;BME280;15295;42.658;23.374;2023-12-20T10:13:49;94344.44;;;8.20;52.45
27958;BME280;15295;42.658;23.374;2023-12-20T10:16:14;94342.91;;;8.54;52.94
27958;BME280;15295;42.658;23.374;2023-12-20T10:18:40;94347.47;;;9.31;52.18
27958;BME280;15295;42.658;23.374;2023-12-20T10:21:06;94353.97;;;10.38;50.44
27958;BME280;15295;42.658;23.374;2023-12-20T10:23:35;94342.63;;;11.28;48.17
27958;BME280;15295;42.658;23.374;2023-12-20T10:26:02;94332.16;;;11.90;45.34
27958;BME280;15295;42.658;23.374;2023-12-20T10:28:33;94333.03;;;12.64;44.71
27958;BME280;15295;42.658;23.374;2023-12-20T10:30:59;94329.31;;;13.24;42.56
27958;BME280;15295;42.658;23.374;2023-12-20T10:33:27;94319.91;;;13.64;41.23
27958;BME280;15295;42.658;23.374;2023-12-20T10:35:54;94315.91;;;14.04;40.24
27958;BME280;15295;42.658;23.374;2023-12-20T10:38:20;94329.53;;;14.63;39.79
27958;BME280;15295;42.658;23.374;2023-12-20T10:40:46;94317.63;;;15.30;38.75
27958;BME280;15295;42.658;23.374;2023-12-20T10:43:14;94314.81;;;16.04;36.91
27958;BME280;15295;42.658;23.374;2023-12-20T10:45:42;94294.56;;;16.48;35.57
27958;BME280;15295;42.658;23.374;2023-12-20T10:48:10;94289.63;;;16.56;34.82
27958;BME280;15295;42.658;23.374;2023-12-20T10:50:37;94290.28;;;16.85;34.97
27958;BME280;15295;42.658;23.374;2023-12-20T10:53:04;94299.59;;;17.13;33.51
27958;BME280;15295;42.658;23.374;2023-12-20T10:55:30;94296.16;;;17.21;34.27
27958;BME280;15295;42.658;23.374;2023-12-20T10:58:08;94283.50;;;17.67;33.19
27958;BME280;15295;42.658;23.374;2023-12-20T11:00:39;94282.34;;;17.77;32.66
27958;BME280;15295;42.658;23.374;2023-12-20T11:03:09;94279.78;;;18.04;32.41
27958;BME280;15295;42.658;23.374;2023-12-20T11:05:44;94274.50;;;17.97;32.00
27958;BME280;15295;42.658;23.374;2023-12-20T11:08:19;94264.00;;;17.92;31.72
27958;BME280;15295;42.658;23.374;2023-12-20T11:10:57;94267.31;;;18.00;31.89
27958;BME280;15295;42.658;23.374;2023-12-20T11:13:35;94268.16;;;17.88;32.10
27958;BME280;15295;42.658;23.374;2023-12-20T11:16:02;94269.75;;;17.76;31.93
27958;BME280;15295;42.658;23.374;2023-12-20T11:18:29;94245.97;;;17.79;32.22
27958;BME280;15295;42.658;23.374;2023-12-20T11:21:00;94236.09;;;17.99;31.79
27958;BME280;15295;42.658;23.374;2023-12-20T11:23:27;94252.19;;;18.13;31.68
27958;BME280;15295;42.658;23.374;2023-12-20T11:25:56;94231.84;;;18.07;32.03
27958;BME280;15295;42.658;23.374;2023-12-20T11:28:24;94244.53;;;18.26;31.78
27958;BME280;15295;42.658;23.374;2023-12-20T11:30:52;94215.19;;;18.29;31.54
27958;BME280;15295;42.658;23.374;2023-12-20T11:33:38;94221.81;;;17.92;31.56
27958;BME280;15295;42.658;23.374;2023-12-20T11:36:13;94208.84;;;17.24;32.32
27958;BME280;15295;42.658;23.374;2023-12-20T11:38:42;94196.16;;;16.45;33.37
27958;BME280;15295;42.658;23.374;2023-12-20T11:41:15;94186.81;;;15.80;34.78
27958;BME280;15295;42.658;23.374;2023-12-20T11:43:41;94190.59;;;15.44;35.19
27958;BME280;15295;42.658;23.374;2023-12-20T11:46:08;94199.69;;;15.00;36.29
27958;BME280;15295;42.658;23.374;2023-12-20T11:48:38;94186.28;;;14.57;36.98
27958;BME280;15295;42.658;23.374;2023-12-20T11:51:11;94187.47;;;14.73;37.58
27958;BME280;15295;42.658;23.374;2023-12-20T11:53:37;94177.22;;;15.30;36.74
27958;BME280;15295;42.658;23.374;2023-12-20T11:56:05;94175.13;;;15.76;35.60
27958;BME280;15295;42.658;23.374;2023-12-20T11:58:32;94167.66;;;15.35;35.83
27958;BME280;15295;42.658;23.374;2023-12-20T12:00:57;94170.94;;;15.30;36.70
27958;BME280;15295;42.658;23.374;2023-12-20T12:03:23;94160.38;;;15.82;35.96
27958;BME280;15295;42.658;23.374;2023-12-20T12:05:49;94145.34;;;16.08;35.27
27958;BME280;15295;42.658;23.374;2023-12-20T12:08:16;94140.81;;;16.27;34.91
27958;BME280;15295;42.658;23.374;2023-12-20T12:10:43;94124.38;;;16.23;34.69
27958;BME280;15295;42.658;23.374;2023-12-20T12:13:09;94133.09;;;16.22;34.77
27958;BME280;15295;42.658;23.374;2023-12-20T12:15:35;94131.78;;;16.14;34.95
27958;BME280;15295;42.658;23.374;2023-12-20T12:18:02;94116.13;;;16.11;34.77
27958;BME280;15295;42.658;23.374;2023-12-20T12:20:27;94111.78;;;16.35;34.40
27958;BME280;15295;42.658;23.374;2023-12-20T12:23:04;94109.53;;;16.08;34.59
27958;BME280;15295;42.658;23.374;2023-12-20T12:28:30;94110.59;;;16.23;34.53
27958;BME280;15295;42.658;23.374;2023-12-20T12:31:00;94113.81;;;16.09;34.80
27958;BME280;15295;42.658;23.374;2023-12-20T12:33:26;94101.91;;;16.25;35.10
27958;BME280;15295;42.658;23.374;2023-12-20T12:35:53;94106.19;;;16.94;33.98
27958;BME280;15295;42.658;23.374;2023-12-20T12:38:22;94110.06;;;17.19;33.60
27958;BME280;15295;42.658;23.374;2023-12-20T12:40:49;94109.66;;;17.08;33.08
27958;BME280;15295;42.658;23.374;2023-12-20T12:43:15;94094.91;;;17.02;33.52
27958;BME280;15295;42.658;23.374;2023-12-20T12:45:47;94085.00;;;16.91;33.61
27958;BME280;15295;42.658;23.374;2023-12-20T12:48:12;94099.00;;;16.75;33.90
27958;BME280;15295;42.658;23.374;2023-12-20T12:50:38;94096.56;;;16.77;34.03
27958;BME280;15295;42.658;23.374;2023-12-20T12:53:03;94096.63;;;16.65;34.29
27958;BME280;15295;42.658;23.374;2023-12-20T12:55:29;94098.63;;;16.52;34.68
27958;BME280;15295;42.658;23.374;2023-12-20T12:57:54;94091.19;;;16.27;34.96
27958;BME280;15295;42.658;23.374;2023-12-20T13:00:20;94089.56;;;16.04;34.97
27958;BME280;15295;42.658;23.374;2023-12-20T13:02:47;94084.00;;;15.70;35.81
27958;BME280;15295;42.658;23.374;2023-12-20T13:05:13;94092.44;;;15.38;36.35
27958;BME280;15295;42.658;23.374;2023-12-20T13:07:39;94091.28;;;15.10;36.94
27958;BME280;15295;42.658;23.374;2023-12-20T13:10:05;94103.34;;;14.88;37.32